createdAt,value
2023-03-29T00:02:05.509Z,84.03
2023-03-29T00:04:34.367Z,83.56
2023-03-29T00:07:04.797Z,82.82
2023-03-29T00:09:33.480Z,82.54
2023-03-29T00:12:01.409Z,82.42
2023-03-29T00:14:30.692Z,82.55
2023-03-29T00:16:58.766Z,82.70
2023-03-29T00:19:25.977Z,83.16
2023-03-29T00:21:52.879Z,83.05
2023-03-29T00:24:21.364Z,82.98
2023-03-29T00:26:48.626Z,82.98
2023-03-29T00:29:15.684Z,82.95
2023-03-29T00:31:44.523Z,83.08
2023-03-29T00:34:11.724Z,83.33
2023-03-29T00:36:40.536Z,83.55
2023-03-29T00:39:07.482Z,83.65
2023-03-29T00:41:34.666Z,83.58
2023-03-29T00:44:04.210Z,83.40
2023-03-29T00:46:32.422Z,83.57
2023-03-29T00:49:07.250Z,83.68
2023-03-29T00:51:38.578Z,83.57
2023-03-29T00:54:14.944Z,83.61
2023-03-29T00:56:47.550Z,83.85
2023-03-29T00:59:19.715Z,84.12
2023-03-29T01:01:50.537Z,84.32
2023-03-29T01:04:29.608Z,84.35
2023-03-29T01:07:06.875Z,84.44
2023-03-29T01:09:38.999Z,84.46
2023-03-29T01:12:20.953Z,84.13
2023-03-29T01:14:59.603Z,83.31
2023-03-29T01:17:26.921Z,82.86
2023-03-29T01:20:02.195Z,83.19
2023-03-29T01:22:44.564Z,83.22
2023-03-29T01:25:32.203Z,83.23
2023-03-29T01:28:20.318Z,82.97
2023-03-29T01:30:54.127Z,83.09
2023-03-29T01:33:30.374Z,83.56
2023-03-29T01:36:04.750Z,83.93
2023-03-29T01:38:39.485Z,83.95
2023-03-29T01:41:07.895Z,83.87
2023-03-29T01:43:47.091Z,83.95
2023-03-29T01:46:13.818Z,83.64
2023-03-29T01:48:56.936Z,83.03
2023-03-29T01:51:55.044Z,82.65
2023-03-29T01:54:43.522Z,82.35
2023-03-29T01:57:11.925Z,82.39
2023-03-29T01:59:42.828Z,82.49
2023-03-29T02:02:14.918Z,82.55
2023-03-29T02:04:51.121Z,83.21
2023-03-29T02:07:22.527Z,83.63
2023-03-29T02:09:52.674Z,83.64
2023-03-29T02:12:20.679Z,83.84
2023-03-29T02:14:47.570Z,84.23
2023-03-29T02:17:23.671Z,84.51
2023-03-29T02:19:58.134Z,84.74
2023-03-29T02:22:30.766Z,85.03
2023-03-29T02:25:01.863Z,85.64
2023-03-29T02:27:30.006Z,85.81
2023-03-29T02:29:58.345Z,85.97
2023-03-29T02:32:57.522Z,85.96
2023-03-29T02:35:35.184Z,85.98
2023-03-29T02:38:09.237Z,85.80
2023-03-29T02:40:39.047Z,85.64
2023-03-29T02:43:08.441Z,85.49
2023-03-29T02:45:39.047Z,85.29
2023-03-29T02:48:10.561Z,85.05
2023-03-29T02:50:39.814Z,84.65
2023-03-29T02:53:32.437Z,84.30
2023-03-29T02:56:02.286Z,83.99
2023-03-29T02:58:29.666Z,83.78
2023-03-29T03:00:59.971Z,83.65
2023-03-29T03:03:27.524Z,83.57
2023-03-29T03:05:54.975Z,83.16
2023-03-29T03:08:21.839Z,82.87
2023-03-29T03:10:48.759Z,82.49
2023-03-29T03:13:15.565Z,82.42
2023-03-29T03:15:43.108Z,82.35
2023-03-29T03:18:10.710Z,82.52
2023-03-29T03:20:37.687Z,82.45
2023-03-29T03:23:04.510Z,82.42
2023-03-29T03:25:32.459Z,82.20
2023-03-29T03:27:59.493Z,82.23
2023-03-29T03:30:26.374Z,82.29
2023-03-29T03:33:11.774Z,82.10
2023-03-29T03:35:46.516Z,82.40
2023-03-29T03:38:15.305Z,82.22
2023-03-29T03:40:43.476Z,82.15
2023-03-29T03:43:10.402Z,82.11
2023-03-29T03:45:38.615Z,82.17
2023-03-29T03:48:15.055Z,82.36
2023-03-29T03:50:55.387Z,82.39
2023-03-29T03:53:23.644Z,82.51
2023-03-29T03:56:09.335Z,82.44
2023-03-29T03:58:51.743Z,82.46
2023-03-29T04:01:19.701Z,82.25
2023-03-29T04:03:58.078Z,82.41
2023-03-29T04:06:25.533Z,82.39
2023-03-29T04:09:12.976Z,82.46
2023-03-29T04:11:43.121Z,82.01
2023-03-29T04:14:11.345Z,81.98
2023-03-29T04:16:58.391Z,81.75
2023-03-29T04:19:57.711Z,82.29
2023-03-29T04:22:26.923Z,82.52
2023-03-29T04:24:53.966Z,82.58
2023-03-29T04:27:45.523Z,82.75
2023-03-29T04:30:23.872Z,82.64
2023-03-29T04:33:08.973Z,82.93
2023-03-29T04:35:37.792Z,82.91
2023-03-29T04:38:10.079Z,83.02
2023-03-29T04:40:38.387Z,82.84
2023-03-29T04:43:39.703Z,83.10
2023-03-29T04:46:26.968Z,83.13
2023-03-29T04:49:09.162Z,83.34
2023-03-29T04:51:39.960Z,84.22
2023-03-29T04:54:06.827Z,84.61
2023-03-29T04:56:52.722Z,83.77
2023-03-29T04:59:55.088Z,83.26
2023-03-29T05:02:44.273Z,83.12
2023-03-29T05:05:12.922Z,81.62
2023-03-29T05:07:41.091Z,79.59
2023-03-29T05:10:09.762Z,81.55
2023-03-29T05:12:36.920Z,81.55
2023-03-29T05:15:08.330Z,80.65
2023-03-29T05:17:35.716Z,80.23
2023-03-29T05:20:12.889Z,79.12
2023-03-29T05:22:42.164Z,79.02
2023-03-29T05:25:13.372Z,78.85
2023-03-29T05:27:42.628Z,78.11
2023-03-29T05:30:11.647Z,77.30
2023-03-29T05:33:11.550Z,77.16
2023-03-29T05:35:39.123Z,76.04
2023-03-29T05:38:08.926Z,76.90
2023-03-29T05:40:36.098Z,77.20
2023-03-29T05:43:41.065Z,77.75
2023-03-29T05:46:08.079Z,78.31
2023-03-29T05:48:37.342Z,78.34
2023-03-29T05:51:05.256Z,78.04
2023-03-29T05:53:32.340Z,78.06
2023-03-29T05:55:59.751Z,76.42
2023-03-29T05:58:28.691Z,76.65
2023-03-29T06:00:55.655Z,75.30
2023-03-29T06:03:42.806Z,74.82
2023-03-29T06:06:10.390Z,73.62
2023-03-29T06:08:37.693Z,72.54
2023-03-29T06:11:19.683Z,69.90
2023-03-29T06:14:06.684Z,71.42
2023-03-29T06:16:36.461Z,70.78
2023-03-29T06:19:03.501Z,73.67
2023-03-29T06:21:31.793Z,69.91
2023-03-29T06:23:59.836Z,70.35
2023-03-29T06:26:33.604Z,70.62
2023-03-29T06:29:00.609Z,67.05
2023-03-29T06:31:27.936Z,68.68
2023-03-29T06:33:55.652Z,72.55
2023-03-29T06:36:51.038Z,69.98
2023-03-29T06:39:20.475Z,69.77
2023-03-29T06:41:53.227Z,65.28
2023-03-29T06:44:54.804Z,70.89
2023-03-29T06:47:29.262Z,69.33
2023-03-29T06:49:56.358Z,64.69
2023-03-29T06:52:39.399Z,61.54
2023-03-29T06:55:07.880Z,63.08
2023-03-29T06:57:36.200Z,65.16
2023-03-29T07:00:23.408Z,61.07
2023-03-29T07:03:06.595Z,61.25
2023-03-29T07:05:36.553Z,62.08
2023-03-29T07:08:07.920Z,60.68
2023-03-29T07:11:01.499Z,55.97
2023-03-29T07:13:33.102Z,57.42
2023-03-29T07:16:03.184Z,54.01
2023-03-29T07:18:48.624Z,54.59
2023-03-29T07:21:37.391Z,55.46
2023-03-29T07:24:06.777Z,52.96
2023-03-29T07:26:35.793Z,56.13
2023-03-29T07:29:03.552Z,54.60
2023-03-29T07:31:31.923Z,54.13
2023-03-29T07:34:18.739Z,55.08
2023-03-29T07:36:45.600Z,55.80
2023-03-29T07:39:15.786Z,55.90
2023-03-29T07:41:51.614Z,58.90
2023-03-29T07:44:19.385Z,58.95
2023-03-29T07:46:46.319Z,60.09
2023-03-29T07:49:13.204Z,63.02
2023-03-29T07:51:40.109Z,60.89
2023-03-29T07:54:10.815Z,60.02
2023-03-29T07:56:48.125Z,58.21
2023-03-29T07:59:15.377Z,58.89
2023-03-29T08:01:44.719Z,59.28
2023-03-29T08:04:25.391Z,61.25
2023-03-29T08:07:11.140Z,58.86
2023-03-29T08:10:04.517Z,59.67
2023-03-29T08:12:52.376Z,61.36
2023-03-29T08:15:25.298Z,59.73
2023-03-29T08:17:52.223Z,58.60
2023-03-29T08:20:19.285Z,62.79
2023-03-29T08:22:49.339Z,59.57
2023-03-29T08:25:16.871Z,59.63
2023-03-29T08:27:48.079Z,56.44
2023-03-29T08:30:22.341Z,50.56
2023-03-29T08:32:52.926Z,53.61
2023-03-29T08:35:21.383Z,52.66
2023-03-29T08:38:03.715Z,55.99
2023-03-29T09:18:13.339Z,48.84
2023-03-29T09:20:53.444Z,44.24
2023-03-29T09:23:40.139Z,41.58
2023-03-29T09:26:30.058Z,42.02
2023-03-29T09:29:45.311Z,41.73
2023-03-29T09:32:25.126Z,41.48
2023-03-29T09:35:18.745Z,40.04
2023-03-29T09:37:49.231Z,40.22
2023-03-29T09:40:22.207Z,38.73
2023-03-29T09:43:02.398Z,37.12
2023-03-29T09:45:30.052Z,33.05
2023-03-29T09:48:03.504Z,35.43
2023-03-29T09:50:37.156Z,34.83
2023-03-29T09:53:08.032Z,36.07
2023-03-29T09:55:40.241Z,37.00
2023-03-29T09:58:44.369Z,33.62
2023-03-29T10:01:15.686Z,32.81
2023-03-29T10:03:47.934Z,32.21
2023-03-29T10:06:17.796Z,32.15
2023-03-29T10:08:59.113Z,29.68
2023-03-29T10:11:38.372Z,31.48
2023-03-29T10:14:17.759Z,30.29
2023-03-29T10:16:46.356Z,31.93
2023-03-29T10:19:36.225Z,36.20
2023-03-29T10:22:23.009Z,31.63
2023-03-29T10:24:52.328Z,32.04
2023-03-29T10:27:24.925Z,28.47
2023-03-29T10:29:52.335Z,29.06
2023-03-29T10:32:22.860Z,31.45
2023-03-29T10:34:51.996Z,29.64
2023-03-29T10:37:21.313Z,28.58
2023-03-29T10:39:50.353Z,30.09
2023-03-29T10:42:20.538Z,29.66
2023-03-29T10:45:19.047Z,27.91
2023-03-29T10:47:48.131Z,28.48
2023-03-29T10:50:16.082Z,28.13
2023-03-29T10:52:43.238Z,28.09
2023-03-29T10:55:13.734Z,27.10
2023-03-29T10:57:59.216Z,29.93
2023-03-29T11:00:43.790Z,29.45
2023-03-29T11:03:28.492Z,24.54
2023-03-29T11:06:16.714Z,29.26
2023-03-29T11:08:51.319Z,24.82
2023-03-29T11:12:15.469Z,25.02
2023-03-29T11:14:45.577Z,23.43
2023-03-29T11:17:27.566Z,25.00
2023-03-29T11:20:12.499Z,26.14
2023-03-29T11:23:07.335Z,23.68
2023-03-29T11:25:59.229Z,25.97
2023-03-29T11:28:55.145Z,27.10
2023-03-29T11:31:30.898Z,23.85
2023-03-29T11:34:24.832Z,22.89
2023-03-29T11:37:03.760Z,22.69
2023-03-29T11:43:00.488Z,23.98
2023-03-29T11:45:34.637Z,22.60
2023-03-29T11:48:04.963Z,21.83
2023-03-29T11:50:42.218Z,23.07
2023-03-29T11:53:17.024Z,21.29
2023-03-29T11:55:44.736Z,20.00
2023-03-29T11:58:32.267Z,20.47
2023-03-29T12:01:27.191Z,22.08
2023-03-29T12:03:58.858Z,21.07
2023-03-29T12:06:41.483Z,20.59
2023-03-29T12:09:21.970Z,21.26
2023-03-29T12:12:15.525Z,21.76
2023-03-29T12:15:10.877Z,21.18
2023-03-29T12:17:45.786Z,22.37
2023-03-29T12:20:31.524Z,20.50
2023-03-29T12:23:00.894Z,21.19
2023-03-29T12:25:53.094Z,20.87
2023-03-29T12:28:33.363Z,20.91
2023-03-29T12:31:15.257Z,22.24
2023-03-29T12:33:54.387Z,21.60
2023-03-29T12:37:02.082Z,22.17
2023-03-29T12:40:05.174Z,22.77
2023-03-29T12:43:05.130Z,21.81
2023-03-29T12:45:56.031Z,21.34
2023-03-29T12:48:30.089Z,20.98
2023-03-29T12:51:04.393Z,22.31
2023-03-29T12:53:40.961Z,21.56
2023-03-29T12:56:17.311Z,20.18
2023-03-29T12:59:06.303Z,19.76
2023-03-29T13:01:34.488Z,18.60
2023-03-29T13:04:01.470Z,18.90
2023-03-29T13:06:51.685Z,18.52
2023-03-29T13:09:22.296Z,20.12
2023-03-29T13:11:59.537Z,18.65
2023-03-29T13:14:31.863Z,18.96
2023-03-29T13:17:17.672Z,19.62
2023-03-29T13:20:12.546Z,19.21
2023-03-29T13:23:17.635Z,19.52
2023-03-29T13:26:19.785Z,19.17
2023-03-29T13:29:11.716Z,19.69
2023-03-29T13:32:01.858Z,19.86
2023-03-29T13:34:57.745Z,19.94
2023-03-29T13:37:53.175Z,18.79
2023-03-29T13:40:44.453Z,20.21
2023-03-29T13:43:24.393Z,19.70
2023-03-29T13:45:57.156Z,19.94
2023-03-29T13:48:49.030Z,21.06
2023-03-29T13:51:18.701Z,20.93
2023-03-29T13:54:01.861Z,21.06
2023-03-29T13:56:37.173Z,20.65
2023-03-29T13:59:13.481Z,21.20
2023-03-29T14:01:49.385Z,21.69
2023-03-29T14:04:25.571Z,21.21
2023-03-29T14:06:56.634Z,22.47
2023-03-29T14:09:30.285Z,22.18
2023-03-29T14:11:59.899Z,22.24
2023-03-29T14:14:29.641Z,22.02
2023-03-29T14:16:57.234Z,21.59
2023-03-29T14:19:36.648Z,20.89
2023-03-29T14:22:13.902Z,20.61
2023-03-29T14:24:49.251Z,22.06
2023-03-29T14:27:17.615Z,20.92
2023-03-29T14:29:49.654Z,19.98
2023-03-29T14:32:19.040Z,21.41
2023-03-29T14:34:49.853Z,20.95
2023-03-29T14:37:22.857Z,20.25
2023-03-29T14:39:50.745Z,21.01
2023-03-29T14:42:24.534Z,20.51
2023-03-29T14:44:51.812Z,21.90
2023-03-29T14:47:28.264Z,21.21
2023-03-29T14:49:57.048Z,20.34
2023-03-29T14:52:24.963Z,20.55
2023-03-29T14:54:56.708Z,20.38
2023-03-29T14:57:27.401Z,21.16
2023-03-29T15:00:02.709Z,20.76
2023-03-29T15:02:32.343Z,20.41
2023-03-29T15:05:05.611Z,20.65
2023-03-29T15:07:34.653Z,20.63
2023-03-29T15:10:05.124Z,21.16
2023-03-29T15:12:33.539Z,20.99
2023-03-29T15:15:01.464Z,19.73
2023-03-29T15:17:50.941Z,20.79
2023-03-29T15:20:29.165Z,20.38
2023-03-29T15:23:02.615Z,21.05
2023-03-29T15:25:49.113Z,21.71
2023-03-29T15:28:32.644Z,21.90
2023-03-29T15:31:10.321Z,21.57
2023-03-29T15:33:39.768Z,21.25
2023-03-29T15:36:09.303Z,21.29
2023-03-29T15:38:44.014Z,21.22
2023-03-29T15:41:13.577Z,21.82
2023-03-29T15:43:41.459Z,21.41
2023-03-29T15:46:12.404Z,21.57
2023-03-29T15:48:39.629Z,22.14
2023-03-29T15:51:07.569Z,22.72
2023-03-29T15:53:35.995Z,22.08
2023-03-29T15:56:07.401Z,22.72
2023-03-29T15:58:36.242Z,22.74
2023-03-29T16:01:35.710Z,23.05
2023-03-29T16:04:14.338Z,23.95
2023-03-29T16:06:42.439Z,24.00
2023-03-29T16:09:11.906Z,23.74
2023-03-29T16:11:40.979Z,23.94
2023-03-29T16:14:16.646Z,24.08
2023-03-29T16:16:43.516Z,24.20
2023-03-29T16:19:13.032Z,24.42
2023-03-29T16:21:40.681Z,25.00
2023-03-29T16:24:13.674Z,25.69
2023-03-29T16:26:40.750Z,24.08
2023-03-29T16:29:07.567Z,25.40
2023-03-29T16:31:34.528Z,25.66
2023-03-29T16:34:01.538Z,24.01
2023-03-29T16:36:30.541Z,25.18
2023-03-29T16:38:57.988Z,24.48
2023-03-29T16:41:24.827Z,25.20
2023-03-29T16:43:51.816Z,24.90
2023-03-29T16:46:19.153Z,25.43
2023-03-29T16:48:46.451Z,25.83
2023-03-29T16:51:13.357Z,25.93
2023-03-29T16:53:40.647Z,25.79
2023-03-29T16:56:07.978Z,26.78
2023-03-29T16:58:34.826Z,27.21
2023-03-29T17:01:13.403Z,27.24
2023-03-29T17:03:41.076Z,26.68
2023-03-29T17:06:09.236Z,26.71
2023-03-29T17:08:36.925Z,27.42
2023-03-29T17:11:04.707Z,28.45
2023-03-29T17:13:31.640Z,31.09
2023-03-29T17:15:58.768Z,31.81
2023-03-29T17:18:27.168Z,32.21
2023-03-29T17:20:58.891Z,33.26
2023-03-29T17:23:26.563Z,34.45
2023-03-29T17:25:56.976Z,36.27
2023-03-29T17:28:24.519Z,36.15
2023-03-29T17:30:51.573Z,36.77
2023-03-29T17:33:22.488Z,36.60
2023-03-29T17:35:49.824Z,38.36
2023-03-29T17:38:16.781Z,39.04
2023-03-29T17:40:43.627Z,39.47
2023-03-29T17:43:10.472Z,39.58
2023-03-29T17:45:37.260Z,40.24
2023-03-29T17:48:06.231Z,40.52
2023-03-29T17:50:34.622Z,40.38
2023-03-29T17:53:01.425Z,40.76
2023-03-29T17:55:28.403Z,40.98
2023-03-29T17:57:55.338Z,41.15
2023-03-29T18:00:22.492Z,40.36
2023-03-29T18:02:49.554Z,40.30
2023-03-29T18:05:16.625Z,40.40
2023-03-29T18:07:43.810Z,40.59
2023-03-29T18:10:10.963Z,42.03
2023-03-29T18:12:38.083Z,42.52
2023-03-29T18:15:05.317Z,42.35
2023-03-29T18:17:32.339Z,42.35
2023-03-29T18:19:59.436Z,41.45
2023-03-29T18:22:26.203Z,41.62
2023-03-29T18:24:53.718Z,41.45
2023-03-29T18:27:20.975Z,41.42
2023-03-29T18:29:47.946Z,41.30
2023-03-29T18:32:14.823Z,41.68
2023-03-29T18:34:41.760Z,41.36
2023-03-29T18:37:14.541Z,41.81
2023-03-29T18:39:41.795Z,42.03
2023-03-29T18:42:12.103Z,42.04
2023-03-29T18:44:40.650Z,42.60
2023-03-29T18:47:07.470Z,43.53
2023-03-29T18:49:34.635Z,43.06
2023-03-29T18:52:02.146Z,43.79
2023-03-29T18:54:28.944Z,43.58
2023-03-29T18:56:59.430Z,43.90
2023-03-29T18:59:26.621Z,44.69
2023-03-29T19:01:53.479Z,44.61
2023-03-29T19:04:20.335Z,44.43
2023-03-29T19:06:47.837Z,44.09
2023-03-29T19:09:14.891Z,43.65
2023-03-29T19:11:41.763Z,43.22
2023-03-29T19:14:09.304Z,42.95
2023-03-29T19:16:36.371Z,43.23
2023-03-29T19:19:05.757Z,43.40
2023-03-29T19:21:33.171Z,43.20
2023-03-29T19:24:01.024Z,43.29
2023-03-29T19:26:33.598Z,44.54
2023-03-29T19:29:01.314Z,44.93
2023-03-29T19:31:28.822Z,45.12
2023-03-29T19:33:55.948Z,45.77
2023-03-29T19:36:23.877Z,46.67
2023-03-29T19:38:51.675Z,46.38
2023-03-29T19:41:18.766Z,45.90
2023-03-29T19:43:45.549Z,45.78
2023-03-29T19:46:12.896Z,45.68
2023-03-29T19:48:40.585Z,46.77
2023-03-29T19:51:08.062Z,48.09
2023-03-29T19:53:38.459Z,47.38
2023-03-29T19:56:07.548Z,47.86
2023-03-29T19:58:35.591Z,47.84
2023-03-29T20:01:03.132Z,47.51
2023-03-29T20:03:30.286Z,48.73
2023-03-29T20:05:57.280Z,48.72
2023-03-29T20:08:24.914Z,47.42
2023-03-29T20:10:59.615Z,46.60
2023-03-29T20:13:37.497Z,48.07
2023-03-29T20:16:11.605Z,47.87
2023-03-29T20:18:38.998Z,47.71
2023-03-29T20:21:07.294Z,47.83
2023-03-29T20:23:35.561Z,47.68
2023-03-29T20:26:03.244Z,47.09
2023-03-29T20:28:30.122Z,46.49
2023-03-29T20:30:57.250Z,46.43
2023-03-29T20:33:24.388Z,46.51
2023-03-29T20:35:51.247Z,46.11
2023-03-29T20:38:18.301Z,45.74
2023-03-29T20:40:45.119Z,45.78
2023-03-29T20:43:18.549Z,45.97
2023-03-29T20:45:53.641Z,46.67
2023-03-29T20:48:23.754Z,45.77
2023-03-29T20:50:51.491Z,45.65
2023-03-29T20:53:20.736Z,47.21
2023-03-29T20:55:48.266Z,48.37
2023-03-29T20:58:16.184Z,47.75
2023-03-29T21:00:43.654Z,48.25
2023-03-29T21:03:11.197Z,48.38
2023-03-29T21:05:38.999Z,47.89
2023-03-29T21:08:06.104Z,48.37
2023-03-29T21:10:33.139Z,49.28
2023-03-29T21:13:02.637Z,49.76
2023-03-29T21:15:30.803Z,49.63
2023-03-29T21:17:58.204Z,49.37
2023-03-29T21:20:25.371Z,50.10
2023-03-29T21:22:52.178Z,50.63
2023-03-29T21:25:19.466Z,50.72
2023-03-29T21:27:46.549Z,50.87
2023-03-29T21:30:13.901Z,51.32
2023-03-29T21:32:41.268Z,51.56
2023-03-29T21:35:09.148Z,52.21
2023-03-29T21:37:36.126Z,52.75
2023-03-29T21:40:06.006Z,52.93
2023-03-29T21:42:34.068Z,52.62
2023-03-29T21:45:01.164Z,52.81
2023-03-29T21:47:28.613Z,52.85
2023-03-29T21:49:55.402Z,52.85
2023-03-29T21:52:22.425Z,52.94
2023-03-29T21:54:49.224Z,52.94
2023-03-29T21:57:16.293Z,52.82
2023-03-29T21:59:43.272Z,52.62
2023-03-29T22:02:10.565Z,52.23
2023-03-29T22:04:37.862Z,52.57
2023-03-29T22:07:05.914Z,52.61
2023-03-29T22:09:35.316Z,53.16
2023-03-29T22:12:04.136Z,53.16
2023-03-29T22:14:35.196Z,54.36
2023-03-29T22:17:07.970Z,54.03
2023-03-29T22:19:41.848Z,54.26
2023-03-29T22:22:13.532Z,54.57
2023-03-29T22:24:41.434Z,55.29
2023-03-29T22:27:08.582Z,55.02
2023-03-29T22:29:35.479Z,54.55
2023-03-29T22:32:02.329Z,54.38
2023-03-29T22:34:30.146Z,54.10
2023-03-29T22:36:56.950Z,54.39
2023-03-29T22:39:23.762Z,55.19
2023-03-29T22:41:50.861Z,55.07
2023-03-29T22:44:17.720Z,55.47
2023-03-29T22:46:44.496Z,55.92
2023-03-29T22:49:12.798Z,56.59
2023-03-29T22:51:39.559Z,57.07
2023-03-29T22:54:06.918Z,57.10
2023-03-29T22:56:33.823Z,56.89
2023-03-29T22:59:00.694Z,57.45
2023-03-29T23:01:27.491Z,58.45
2023-03-29T23:03:54.374Z,59.08
2023-03-29T23:06:21.162Z,59.48
2023-03-29T23:08:47.949Z,59.70
2023-03-29T23:11:14.758Z,59.73
2023-03-29T23:13:41.563Z,60.16
2023-03-29T23:16:08.429Z,63.21
2023-03-29T23:18:37.457Z,62.82
2023-03-29T23:21:06.149Z,63.70
2023-03-29T23:23:33.677Z,62.95
2023-03-29T23:26:01.735Z,62.83
2023-03-29T23:28:30.701Z,63.24
2023-03-29T23:31:03.508Z,64.02
2023-03-29T23:33:35.973Z,63.98
2023-03-29T23:36:05.746Z,64.11
2023-03-29T23:38:34.871Z,63.86
2023-03-29T23:41:05.016Z,64.76
2023-03-29T23:43:35.046Z,64.14
2023-03-29T23:46:07.641Z,64.08
2023-03-29T23:48:35.042Z,64.05
2023-03-29T23:51:02.988Z,63.64
2023-03-29T23:53:31.537Z,63.91
2023-03-29T23:56:00.462Z,63.64
2023-03-29T23:58:33.186Z,63.15
